Portada
METAR-TAF:

METAR-TAF

Aeroports :

Tapachula, Mèxic

latitud: 14-47N, longitud: 092-23W, altitud: 29 m

Observació

L'informe es va fer fa 39 minuts, a les 20:40 UTC
Vent 10 kt del Sud-Oest
Temperatura 32°C
Humitat 59%
Pressió 1009 hPa
Visibilitat: 12.9 km
Cel clar

METAR: MMTP 262040Z 23010KT 8SM SKC 32/23 A2980 RMK SLP114 57022 953 HZY DSNT TCU NE

Hora: 15:19 (21:19 UTC)

Pronòstic

L'informe es va fer fa 4 hores i 6 minuts, a les 17:13 UTC
Pronòstic vàlid del 26 a les 18 UTC al 27 a les 18 UTC
Vent 10 kt del Oest/Sud-Oest
Visibilitat: 10 km
Cel clar
A partir de les 27 a les 0300 UTC
Vent kt del Nord
Visibilitat: 10 km
Núvols disperses a una alçada de 3000 ft
A partir de les 27 a les 0600 UTC
Vent kt del Nord
Visibilitat: 10 km
Núvols disperses a una alçada de 25000 ft

TAF: MMTP 261713Z 2618/2718 24010KT P6SM SKC FM270300 00000KT P6SM SCT030 FM270600 00000KT P6SM SCT250

Observacions i pronòstics meteorològics de més de 4000 aeroports (METAR i TAF).

Les estacions disponibles són els punts grocs i vermells al mapa.

Posi el ratolí al punt desitjat per veure el nom de l'estació.

Feu clic per veure les observacions i els pronòstics meteorològics.

Per canviar el mapa: feu clic els botons verds amb una creu de color negre per apropar; al botó verd amb un guió per allunyar la imatge; o en les fletxes verdes per a mapes adjacents.


METAR-TAF: